createdAt,value
2022-11-30T00:01:54.680Z,35.40
2022-11-30T00:04:31.429Z,48.50
2022-11-30T00:07:07.238Z,34.53
2022-11-30T00:09:45.899Z,36.80
2022-11-30T00:12:27.290Z,35.20
2022-11-30T00:15:03.272Z,43.30
2022-11-30T00:17:41.559Z,38.63
2022-11-30T00:20:19.185Z,44.47
2022-11-30T00:22:55.653Z,38.83
2022-11-30T00:25:33.614Z,43.10
2022-11-30T00:28:14.221Z,52.30
2022-11-30T00:30:51.165Z,44.30
2022-11-30T00:33:27.048Z,44.97
2022-11-30T00:36:07.517Z,34.60
2022-11-30T00:38:45.839Z,48.53
2022-11-30T00:41:30.711Z,39.07
2022-11-30T00:44:17.087Z,47.20
2022-11-30T00:46:54.218Z,49.23
2022-11-30T00:49:30.927Z,47.60
2022-11-30T00:52:07.550Z,45.00
2022-11-30T00:54:49.203Z,45.83
2022-11-30T00:57:28.379Z,41.93
2022-11-30T01:00:05.478Z,42.57
2022-11-30T01:02:44.821Z,51.47
2022-11-30T01:05:20.936Z,47.13
2022-11-30T01:07:59.399Z,47.43
2022-11-30T01:10:37.588Z,47.10
2022-11-30T01:13:17.956Z,44.83
2022-11-30T01:16:08.812Z,48.23
2022-11-30T01:18:47.864Z,43.63
2022-11-30T01:21:31.687Z,55.33
2022-11-30T01:24:09.248Z,52.77
2022-11-30T01:26:45.172Z,41.33
2022-11-30T01:29:22.822Z,56.33
2022-11-30T01:31:57.421Z,51.60
2022-11-30T01:34:32.848Z,43.90
2022-11-30T01:37:07.743Z,42.17
2022-11-30T01:39:42.217Z,41.50
2022-11-30T01:42:21.015Z,40.23
2022-11-30T01:45:02.914Z,44.83
2022-11-30T01:47:40.722Z,56.10
2022-11-30T01:50:19.720Z,52.47
2022-11-30T01:52:58.492Z,57.10
2022-11-30T01:55:37.837Z,47.33
2022-11-30T01:58:15.115Z,56.23
2022-11-30T02:00:53.176Z,59.07
2022-11-30T02:03:36.013Z,60.27
2022-11-30T02:06:10.409Z,59.30
2022-11-30T02:08:45.475Z,68.67
2022-11-30T02:11:22.593Z,55.20
2022-11-30T02:14:10.500Z,53.10
2022-11-30T02:16:55.828Z,54.63
2022-11-30T02:20:07.621Z,63.67
2022-11-30T02:22:55.422Z,65.87
2022-11-30T02:25:41.341Z,62.27
2022-11-30T02:28:40.843Z,61.63
2022-11-30T02:31:19.789Z,67.40
2022-11-30T02:33:56.365Z,67.47
2022-11-30T02:36:31.711Z,53.43
2022-11-30T02:39:05.916Z,49.53
2022-11-30T02:41:44.561Z,47.37
2022-11-30T02:44:23.343Z,60.57
2022-11-30T02:47:18.669Z,66.40
2022-11-30T02:49:59.378Z,59.67
2022-11-30T02:52:35.043Z,56.23
2022-11-30T02:55:12.809Z,67.40
2022-11-30T02:57:47.827Z,71.50
2022-11-30T03:00:25.036Z,51.90
2022-11-30T03:02:59.383Z,50.43
2022-11-30T03:05:34.411Z,54.67
2022-11-30T03:08:09.108Z,47.90
2022-11-30T03:10:44.573Z,55.00
2022-11-30T03:13:19.473Z,47.47
2022-11-30T03:15:56.578Z,47.03
2022-11-30T03:18:32.010Z,56.43
2022-11-30T03:21:09.584Z,61.53
2022-11-30T03:23:45.005Z,54.60
2022-11-30T03:26:19.852Z,58.33
2022-11-30T03:28:56.279Z,59.90
2022-11-30T03:31:34.647Z,60.43
2022-11-30T03:34:10.374Z,53.13
2022-11-30T03:36:45.626Z,61.03
2022-11-30T03:39:20.546Z,63.63
2022-11-30T03:41:55.415Z,49.50
2022-11-30T03:44:31.677Z,61.07
2022-11-30T03:47:09.225Z,53.73
2022-11-30T03:49:44.498Z,59.33
2022-11-30T03:52:19.361Z,53.13
2022-11-30T03:54:54.313Z,60.93
2022-11-30T03:57:29.965Z,56.13
2022-11-30T04:00:06.027Z,54.40
2022-11-30T04:02:51.162Z,52.27
2022-11-30T04:05:27.477Z,58.20
2022-11-30T04:08:04.052Z,59.27
2022-11-30T04:10:42.541Z,50.00
2022-11-30T04:13:19.466Z,41.77
2022-11-30T04:15:57.322Z,54.57
2022-11-30T04:18:37.793Z,54.70
2022-11-30T04:21:15.973Z,58.77
2022-11-30T04:23:52.556Z,61.40
2022-11-30T04:26:30.586Z,65.17
2022-11-30T04:29:08.071Z,52.33
2022-11-30T04:31:45.578Z,55.07
2022-11-30T04:34:24.376Z,43.33
2022-11-30T04:37:00.939Z,55.10
2022-11-30T04:42:27.130Z,50.73
2022-11-30T04:45:03.923Z,54.17
2022-11-30T04:47:38.137Z,44.33
2022-11-30T04:50:15.459Z,53.70
2022-11-30T04:52:51.985Z,64.57
2022-11-30T04:55:27.696Z,48.90
2022-11-30T04:58:02.654Z,56.30
2022-11-30T05:00:38.065Z,56.87
2022-11-30T05:03:13.454Z,54.43
2022-11-30T05:05:53.393Z,45.63
2022-11-30T05:08:29.471Z,51.67
2022-11-30T05:11:04.495Z,50.77
2022-11-30T05:13:38.729Z,55.00
2022-11-30T05:16:15.571Z,54.03
2022-11-30T05:18:52.139Z,53.30
2022-11-30T05:21:29.897Z,49.17
2022-11-30T05:24:54.268Z,50.50
2022-11-30T05:27:31.671Z,50.17
2022-11-30T05:30:07.088Z,55.77
2022-11-30T05:32:42.628Z,44.83
2022-11-30T05:35:18.216Z,52.27
2022-11-30T05:37:54.826Z,43.73
2022-11-30T05:40:30.539Z,43.23
2022-11-30T05:43:05.925Z,48.07
2022-11-30T05:45:40.263Z,47.33
2022-11-30T05:48:14.991Z,48.10
2022-11-30T05:51:08.428Z,40.33
2022-11-30T05:53:45.787Z,46.20
2022-11-30T05:56:22.908Z,52.90
2022-11-30T05:58:58.624Z,48.33
2022-11-30T06:01:34.591Z,51.10
2022-11-30T06:04:11.884Z,46.20
2022-11-30T06:06:47.904Z,38.37
2022-11-30T06:09:25.726Z,43.63
2022-11-30T06:12:02.008Z,47.07
2022-11-30T06:14:37.535Z,39.53
2022-11-30T06:17:11.990Z,45.37
2022-11-30T06:19:46.996Z,42.20
2022-11-30T06:22:22.359Z,37.73
2022-11-30T06:24:58.355Z,46.93
2022-11-30T06:27:36.475Z,37.97
2022-11-30T06:30:14.008Z,34.83
2022-11-30T06:32:50.834Z,39.53
2022-11-30T06:35:25.114Z,25.57
2022-11-30T06:38:02.178Z,38.70
2022-11-30T06:40:38.173Z,34.70
2022-11-30T06:43:12.836Z,21.97
2022-11-30T06:45:49.605Z,27.10
2022-11-30T06:48:25.898Z,25.80
2022-11-30T06:51:00.542Z,22.03
2022-11-30T06:53:35.673Z,26.90
2022-11-30T06:56:17.325Z,26.93
2022-11-30T06:58:51.873Z,26.97
2022-11-30T07:01:27.948Z,22.40
2022-11-30T07:04:05.914Z,28.53
2022-11-30T07:06:40.622Z,24.50
2022-11-30T07:09:14.798Z,27.10
2022-11-30T07:11:52.194Z,26.93
2022-11-30T07:14:28.029Z,28.23
2022-11-30T07:17:06.383Z,27.10
2022-11-30T07:19:40.694Z,23.90
2022-11-30T07:22:16.091Z,25.73
2022-11-30T07:25:07.408Z,29.20
2022-11-30T07:27:44.015Z,30.50
2022-11-30T07:30:20.219Z,28.10
2022-11-30T07:35:45.497Z,30.83
2022-11-30T07:38:22.037Z,36.63
2022-11-30T07:40:56.649Z,36.23
2022-11-30T07:43:38.642Z,24.60
2022-11-30T07:46:13.767Z,34.27
2022-11-30T07:48:50.658Z,28.13
2022-11-30T07:51:26.732Z,27.60
2022-11-30T07:54:03.712Z,26.73
2022-11-30T07:56:38.488Z,34.53
2022-11-30T07:59:15.906Z,24.07
2022-11-30T08:01:51.430Z,21.90
2022-11-30T08:04:25.779Z,27.30
2022-11-30T08:07:01.847Z,24.67
2022-11-30T08:09:42.678Z,25.87
2022-11-30T08:12:18.797Z,21.60
2022-11-30T08:15:18.921Z,30.87
2022-11-30T08:17:51.776Z,24.17
2022-11-30T08:20:30.044Z,21.77
2022-11-30T08:23:05.402Z,21.47
2022-11-30T08:25:43.901Z,22.60
2022-11-30T08:28:19.906Z,33.27
2022-11-30T08:30:56.653Z,23.67
2022-11-30T08:33:32.320Z,18.20
2022-11-30T08:36:13.886Z,27.90
2022-11-30T08:38:50.029Z,24.63
2022-11-30T08:41:26.787Z,24.40
2022-11-30T08:44:01.186Z,20.93
2022-11-30T08:46:55.081Z,21.93
2022-11-30T08:49:29.287Z,25.93
2022-11-30T08:52:17.037Z,22.00
2022-11-30T08:54:53.402Z,17.60
2022-11-30T08:57:28.593Z,24.33
2022-11-30T09:00:04.116Z,23.63
2022-11-30T09:02:45.037Z,27.13
2022-11-30T09:05:20.470Z,17.90
2022-11-30T09:07:56.775Z,23.93
2022-11-30T09:10:32.821Z,27.77
2022-11-30T09:13:07.482Z,26.93
2022-11-30T09:15:44.203Z,26.37
2022-11-30T09:18:19.818Z,19.87
2022-11-30T09:20:56.405Z,22.87
2022-11-30T09:23:31.985Z,21.63
2022-11-30T09:26:08.587Z,29.03
2022-11-30T09:28:46.294Z,22.50
2022-11-30T09:31:22.688Z,22.87
2022-11-30T09:34:02.795Z,31.43
2022-11-30T09:36:38.257Z,17.03
2022-11-30T09:39:14.383Z,24.60
2022-11-30T09:42:23.669Z,27.03
2022-11-30T09:45:06.601Z,27.93
2022-11-30T09:47:59.963Z,24.60
2022-11-30T09:50:43.088Z,23.93
2022-11-30T09:53:29.472Z,24.40
2022-11-30T09:56:05.315Z,24.60
2022-11-30T09:58:52.995Z,26.80
2022-11-30T10:01:32.720Z,26.73
2022-11-30T10:04:06.833Z,27.00
2022-11-30T10:06:55.964Z,29.13
2022-11-30T10:10:08.960Z,30.27
2022-11-30T10:12:50.905Z,31.00
2022-11-30T10:15:40.910Z,24.77
2022-11-30T11:02:48.848Z,23.33
2022-11-30T11:05:27.400Z,25.87
2022-11-30T11:08:07.476Z,32.27
2022-11-30T11:10:51.373Z,29.07
2022-11-30T11:13:47.272Z,31.73
2022-11-30T11:16:23.460Z,37.27
2022-11-30T11:19:02.262Z,32.00
2022-11-30T11:21:38.557Z,27.90
2022-11-30T11:24:16.748Z,33.80
2022-11-30T11:26:59.273Z,36.33
2022-11-30T11:29:39.105Z,29.47
2022-11-30T11:32:26.248Z,43.70
2022-11-30T11:35:04.042Z,31.40
2022-11-30T11:37:43.586Z,32.30
2022-11-30T11:40:24.209Z,39.60
2022-11-30T11:43:00.859Z,34.07
2022-11-30T11:45:42.656Z,42.00
2022-11-30T11:48:39.268Z,29.30
2022-11-30T11:51:16.844Z,32.13
2022-11-30T11:54:01.360Z,31.27
2022-11-30T11:56:42.305Z,36.67
2022-11-30T11:59:28.022Z,31.70
2022-11-30T12:02:16.814Z,38.57
2022-11-30T12:04:57.557Z,35.30
2022-11-30T12:07:39.714Z,37.93
2022-11-30T12:13:33.355Z,34.03
2022-11-30T12:16:21.281Z,36.20
2022-11-30T12:19:00.377Z,33.43
2022-11-30T12:21:52.400Z,34.97
2022-11-30T12:25:05.765Z,30.47
2022-11-30T12:27:54.081Z,32.60
2022-11-30T12:30:40.839Z,36.70
2022-11-30T12:33:29.896Z,32.47
2022-11-30T12:36:13.380Z,28.87
2022-11-30T12:38:54.713Z,29.93
2022-11-30T12:41:46.973Z,35.37
2022-11-30T12:44:42.551Z,37.10
2022-11-30T12:47:35.417Z,32.00
2022-11-30T12:50:39.360Z,37.00
2022-11-30T12:53:26.184Z,31.60
2022-11-30T12:56:11.341Z,33.23
2022-11-30T12:58:57.637Z,34.03
2022-11-30T13:01:52.049Z,29.97
2022-11-30T13:04:32.680Z,30.10
2022-11-30T13:07:15.422Z,39.33
2022-11-30T13:09:56.612Z,27.50
2022-11-30T13:12:37.974Z,31.57
2022-11-30T13:15:24.341Z,24.80
2022-11-30T13:18:01.550Z,27.20
2022-11-30T13:20:44.293Z,35.83
2022-11-30T13:23:23.062Z,27.13
2022-11-30T13:26:08.722Z,25.93
2022-11-30T13:29:03.176Z,33.70
2022-11-30T13:31:44.294Z,30.90
2022-11-30T13:34:34.764Z,30.27
2022-11-30T13:37:11.531Z,27.27
2022-11-30T13:39:54.555Z,27.40
2022-11-30T13:42:36.872Z,26.37
2022-11-30T13:45:40.663Z,24.87
2022-11-30T13:48:40.188Z,25.73
2022-11-30T13:51:15.930Z,21.43
2022-11-30T13:53:51.558Z,23.33
2022-11-30T13:56:45.793Z,30.10
2022-11-30T13:59:51.096Z,20.23
2022-11-30T14:02:59.948Z,24.13
2022-11-30T14:05:49.674Z,17.73
2022-11-30T14:08:47.931Z,16.30
2022-11-30T14:11:48.518Z,24.30
2022-11-30T14:14:52.281Z,21.83
2022-11-30T14:17:30.265Z,28.87
2022-11-30T14:20:19.878Z,22.07
2022-11-30T14:22:59.079Z,24.77
2022-11-30T14:25:37.878Z,23.13
2022-11-30T14:28:17.728Z,24.73
2022-11-30T14:30:54.596Z,20.40
2022-11-30T14:33:37.160Z,26.07
2022-11-30T14:36:16.881Z,23.27
2022-11-30T14:38:54.940Z,21.40
2022-11-30T14:41:32.547Z,28.97
2022-11-30T14:44:11.429Z,19.63
2022-11-30T14:46:46.632Z,27.00
2022-11-30T14:49:22.910Z,24.87
2022-11-30T14:52:05.291Z,28.63
2022-11-30T14:54:57.079Z,24.67
2022-11-30T14:57:40.131Z,22.33
2022-11-30T15:00:23.038Z,21.63
2022-11-30T15:03:02.788Z,24.83
2022-11-30T15:05:48.919Z,23.67
2022-11-30T15:08:25.508Z,26.03
2022-11-30T15:11:10.804Z,22.73
2022-11-30T15:13:49.205Z,20.47
2022-11-30T15:16:27.104Z,20.00
2022-11-30T15:19:05.264Z,21.07
2022-11-30T15:21:42.014Z,23.17
2022-11-30T15:24:19.242Z,21.20
2022-11-30T15:27:08.774Z,25.23
2022-11-30T15:29:52.142Z,25.43
2022-11-30T15:32:33.507Z,21.63
2022-11-30T15:35:10.463Z,23.03
2022-11-30T15:37:47.803Z,16.50
2022-11-30T15:40:32.258Z,22.67
2022-11-30T15:43:11.442Z,29.83
2022-11-30T15:45:59.432Z,23.33
2022-11-30T15:48:35.672Z,22.17
2022-11-30T15:51:11.894Z,25.07
2022-11-30T15:53:55.555Z,30.13
2022-11-30T15:56:33.758Z,18.57
2022-11-30T15:59:25.617Z,23.53
2022-11-30T16:02:11.547Z,21.93
2022-11-30T16:05:23.773Z,29.53
2022-11-30T16:08:04.636Z,23.43
2022-11-30T16:10:45.630Z,26.90
2022-11-30T16:13:24.410Z,23.47
2022-11-30T16:16:05.446Z,35.50
2022-11-30T16:19:01.165Z,25.87
2022-11-30T16:21:36.515Z,26.57
2022-11-30T16:24:15.952Z,31.40
2022-11-30T16:26:51.927Z,22.60
2022-11-30T16:29:28.408Z,23.50
2022-11-30T16:32:06.295Z,26.90
2022-11-30T16:34:40.924Z,26.67
2022-11-30T16:37:16.685Z,26.53
2022-11-30T16:39:51.634Z,28.37
2022-11-30T16:42:28.188Z,25.23
2022-11-30T16:45:02.718Z,21.60
2022-11-30T16:47:39.961Z,23.90
2022-11-30T16:50:16.145Z,25.47
2022-11-30T16:52:53.390Z,27.30
2022-11-30T16:55:29.961Z,26.80
2022-11-30T16:58:04.764Z,24.57
2022-11-30T17:00:40.224Z,25.13
2022-11-30T17:03:26.242Z,25.50
2022-11-30T17:06:00.527Z,25.67
2022-11-30T17:08:35.495Z,32.63
2022-11-30T17:11:10.391Z,22.70
2022-11-30T17:13:45.962Z,21.37
2022-11-30T17:16:20.003Z,26.17
2022-11-30T17:18:57.042Z,29.13
2022-11-30T17:21:34.483Z,25.60
2022-11-30T17:24:25.852Z,26.67
2022-11-30T17:27:01.603Z,31.63
2022-11-30T17:29:36.059Z,25.50
2022-11-30T17:32:10.170Z,23.80
2022-11-30T17:34:46.346Z,27.17
2022-11-30T17:37:21.597Z,28.77
2022-11-30T17:39:56.256Z,32.10
2022-11-30T17:42:30.577Z,28.37
2022-11-30T17:45:05.192Z,26.53
2022-11-30T17:47:40.197Z,25.37
2022-11-30T17:50:17.288Z,31.70
2022-11-30T17:52:51.289Z,26.30
2022-11-30T17:55:26.590Z,28.43
2022-11-30T17:58:01.063Z,32.20
2022-11-30T18:00:36.024Z,28.83
2022-11-30T18:03:10.121Z,28.93
2022-11-30T18:05:46.757Z,33.90
2022-11-30T18:08:22.833Z,26.13
2022-11-30T18:10:57.802Z,30.17
2022-11-30T18:13:33.523Z,32.60
2022-11-30T18:16:13.819Z,30.57
2022-11-30T18:18:48.857Z,28.83
2022-11-30T18:21:26.025Z,29.20
2022-11-30T18:24:01.590Z,29.57
2022-11-30T18:26:37.026Z,24.30
2022-11-30T18:29:11.966Z,27.70
2022-11-30T18:31:46.679Z,31.50
2022-11-30T18:34:20.517Z,28.50
2022-11-30T18:36:56.256Z,29.10
2022-11-30T18:39:30.583Z,35.63
2022-11-30T18:42:04.704Z,29.43
2022-11-30T18:44:38.834Z,32.43
2022-11-30T18:47:14.017Z,28.90
2022-11-30T18:49:48.776Z,31.87
2022-11-30T18:52:25.328Z,37.57
2022-11-30T18:54:59.517Z,29.93
2022-11-30T18:57:33.474Z,33.47
2022-11-30T19:00:07.839Z,26.30
2022-11-30T19:02:42.044Z,26.30
2022-11-30T19:05:32.993Z,29.13
2022-11-30T19:08:10.736Z,28.47
2022-11-30T19:10:46.820Z,28.07
2022-11-30T19:13:20.824Z,32.33
2022-11-30T19:15:55.109Z,33.10
2022-11-30T19:18:29.254Z,32.50
2022-11-30T19:21:03.548Z,23.77
2022-11-30T19:23:40.551Z,29.53
2022-11-30T19:26:15.878Z,32.93
2022-11-30T19:28:51.009Z,30.03
2022-11-30T19:31:26.243Z,33.03
2022-11-30T19:34:00.937Z,36.20
2022-11-30T19:36:35.756Z,35.93
2022-11-30T19:39:12.253Z,34.93
2022-11-30T19:41:47.031Z,26.73
2022-11-30T19:44:21.939Z,33.20
2022-11-30T19:46:56.426Z,36.57
2022-11-30T19:49:30.728Z,36.27
2022-11-30T19:52:05.032Z,35.57
2022-11-30T19:54:41.590Z,32.27
2022-11-30T19:57:15.470Z,28.47
2022-11-30T19:59:50.185Z,27.17
2022-11-30T20:02:24.268Z,29.90
2022-11-30T20:04:58.416Z,40.20
2022-11-30T20:07:32.803Z,34.43
2022-11-30T20:10:09.241Z,23.40
2022-11-30T20:12:43.768Z,29.10
2022-11-30T20:15:17.546Z,31.37
2022-11-30T20:17:51.647Z,35.17
2022-11-30T20:20:26.057Z,35.73
2022-11-30T20:23:00.241Z,35.77
2022-11-30T20:25:37.940Z,31.13
2022-11-30T20:28:12.704Z,34.33
2022-11-30T20:30:46.870Z,32.00
2022-11-30T20:33:20.711Z,24.43
2022-11-30T20:35:54.823Z,26.90
2022-11-30T20:38:29.304Z,33.93
2022-11-30T20:41:05.767Z,30.33
2022-11-30T20:43:39.783Z,36.37
2022-11-30T20:46:22.033Z,33.70
2022-11-30T20:48:56.966Z,32.63
2022-11-30T20:51:32.876Z,30.37
2022-11-30T20:54:08.361Z,29.83
2022-11-30T20:56:46.113Z,27.33
2022-11-30T20:59:28.135Z,25.90
2022-11-30T21:02:02.389Z,28.67
2022-11-30T21:04:36.555Z,30.97
2022-11-30T21:07:10.959Z,31.13
2022-11-30T21:09:46.126Z,31.67
2022-11-30T21:12:22.192Z,34.57
2022-11-30T21:14:57.099Z,34.73
2022-11-30T21:17:31.120Z,26.47
2022-11-30T21:20:05.366Z,39.23
2022-11-30T21:22:39.527Z,29.40
2022-11-30T21:25:13.915Z,35.77
2022-11-30T21:27:54.686Z,35.97
2022-11-30T21:30:28.632Z,35.60
2022-11-30T21:33:02.662Z,40.03
2022-11-30T21:35:37.033Z,32.40
2022-11-30T21:38:11.645Z,34.37
2022-11-30T21:40:45.450Z,32.47
2022-11-30T21:43:21.347Z,36.07
2022-11-30T21:46:03.824Z,35.33
2022-11-30T21:48:39.415Z,39.37
2022-11-30T21:51:14.677Z,33.77
2022-11-30T21:53:50.122Z,36.23
2022-11-30T21:56:25.281Z,37.47
2022-11-30T21:59:01.340Z,33.20
2022-11-30T22:01:36.465Z,31.17
2022-11-30T22:04:12.136Z,33.43
2022-11-30T22:06:46.675Z,40.87
2022-11-30T22:09:22.423Z,42.43
2022-11-30T22:11:57.173Z,39.60
2022-11-30T22:14:32.787Z,35.97
2022-11-30T22:17:07.006Z,36.13
2022-11-30T22:19:40.916Z,42.07
2022-11-30T22:22:14.617Z,40.37
2022-11-30T22:24:48.229Z,38.20
2022-11-30T22:27:22.149Z,34.27
2022-11-30T22:29:58.195Z,36.30
2022-11-30T22:32:32.421Z,36.53
2022-11-30T22:35:07.062Z,30.87
2022-11-30T22:37:41.588Z,35.67
2022-11-30T22:40:16.881Z,36.03
2022-11-30T22:42:51.474Z,39.60
2022-11-30T22:45:27.659Z,35.30
2022-11-30T22:48:01.612Z,36.30
2022-11-30T22:50:36.121Z,36.97
2022-11-30T22:53:10.566Z,30.83
2022-11-30T22:56:01.906Z,38.70
2022-11-30T22:58:36.339Z,28.30
2022-11-30T23:01:17.316Z,35.03
2022-11-30T23:03:52.538Z,31.33
2022-11-30T23:06:27.496Z,36.87
2022-11-30T23:09:02.731Z,36.87
2022-11-30T23:11:37.196Z,33.80
2022-11-30T23:14:13.585Z,32.87
2022-11-30T23:16:49.882Z,31.80
2022-11-30T23:19:25.617Z,46.50
2022-11-30T23:22:01.816Z,39.53
2022-11-30T23:24:35.868Z,39.43
2022-11-30T23:27:09.647Z,26.27
2022-11-30T23:29:44.351Z,30.67
2022-11-30T23:32:20.088Z,32.33
2022-11-30T23:34:54.332Z,28.83
2022-11-30T23:37:28.700Z,35.83
2022-11-30T23:40:03.044Z,39.37
2022-11-30T23:42:37.142Z,32.37
2022-11-30T23:45:11.987Z,39.57
2022-11-30T23:47:47.812Z,35.00
2022-11-30T23:50:21.731Z,34.30
2022-11-30T23:52:55.642Z,41.00
2022-11-30T23:55:29.915Z,38.47
2022-11-30T23:58:04.306Z,32.80
